createdAt,value
2018-12-29T00:00:16.168Z,31.50
2018-12-29T00:02:44.420Z,31.40
2018-12-29T00:05:12.908Z,31.20
2018-12-29T00:07:41.150Z,31.20
2018-12-29T00:10:09.427Z,31.10
2018-12-29T00:12:37.655Z,31.10
2018-12-29T00:15:05.884Z,31.00
2018-12-29T00:17:34.143Z,31.00
2018-12-29T00:20:02.371Z,31.00
2018-12-29T00:22:30.928Z,30.90
2018-12-29T00:24:59.168Z,30.90
2018-12-29T00:27:27.429Z,30.80
2018-12-29T00:29:55.913Z,30.80
2018-12-29T00:32:24.168Z,30.80
2018-12-29T00:34:52.654Z,30.80
2018-12-29T00:37:20.979Z,30.80
2018-12-29T00:39:49.448Z,30.80
2018-12-29T00:42:17.702Z,30.90
2018-12-29T00:44:46.171Z,30.90
2018-12-29T00:47:14.420Z,30.80
2018-12-29T00:49:42.648Z,30.90
2018-12-29T00:52:10.912Z,30.70
2018-12-29T00:54:39.144Z,31.00
2018-12-29T00:57:07.400Z,30.90
2018-12-29T00:59:35.912Z,31.00
2018-12-29T01:02:04.155Z,31.00
2018-12-29T01:04:32.414Z,31.00
2018-12-29T01:07:00.656Z,31.10
2018-12-29T01:09:28.921Z,31.10
2018-12-29T01:11:57.165Z,31.10
2018-12-29T01:14:25.415Z,31.20
2018-12-29T01:16:53.893Z,31.20
2018-12-29T01:19:22.115Z,31.30
2018-12-29T01:21:50.368Z,31.40
2018-12-29T01:24:18.627Z,31.50
2018-12-29T01:26:46.868Z,32.00
2018-12-29T01:29:15.091Z,31.70
2018-12-29T01:31:43.367Z,31.60
2018-12-29T01:34:11.840Z,31.70
2018-12-29T01:36:40.069Z,31.70
2018-12-29T01:39:08.408Z,31.80
2018-12-29T01:41:36.891Z,31.80
2018-12-29T01:44:05.353Z,31.90
2018-12-29T01:46:33.604Z,31.90
2018-12-29T01:49:01.852Z,32.00
2018-12-29T01:51:30.109Z,32.00
2018-12-29T01:53:58.327Z,32.10
2018-12-29T01:56:26.555Z,32.10
2018-12-29T01:58:54.802Z,32.40
2018-12-29T02:01:23.252Z,32.50
2018-12-29T02:03:51.516Z,32.50
2018-12-29T02:06:19.743Z,32.50
2018-12-29T02:08:47.972Z,32.60
2018-12-29T02:11:16.227Z,32.60
2018-12-29T02:13:44.484Z,32.80
2018-12-29T02:16:12.717Z,32.70
2018-12-29T02:18:40.964Z,32.90
2018-12-29T02:21:09.223Z,32.90
2018-12-29T02:23:37.460Z,33.00
2018-12-29T02:26:05.948Z,33.10
2018-12-29T02:28:34.159Z,33.40
2018-12-29T02:31:02.425Z,33.10
2018-12-29T02:33:30.675Z,33.20
2018-12-29T02:35:58.901Z,33.30
2018-12-29T02:38:27.149Z,33.40
2018-12-29T02:40:55.392Z,33.40
2018-12-29T02:43:23.619Z,34.10
2018-12-29T02:45:52.099Z,33.50
2018-12-29T02:48:20.562Z,33.60
2018-12-29T02:50:48.779Z,33.70
2018-12-29T02:53:17.254Z,33.80
2018-12-29T02:55:45.490Z,33.80
2018-12-29T02:58:13.730Z,34.00
2018-12-29T03:00:42.187Z,34.00
2018-12-29T03:03:10.444Z,34.70
2018-12-29T03:05:38.683Z,34.10
2018-12-29T03:08:06.889Z,34.20
2018-12-29T03:10:35.120Z,34.30
2018-12-29T03:13:03.355Z,34.30
2018-12-29T03:15:31.603Z,34.40
2018-12-29T03:17:59.893Z,34.40
2018-12-29T03:20:28.156Z,34.40
2018-12-29T03:22:56.407Z,34.40
2018-12-29T03:25:24.651Z,34.60
2018-12-29T03:27:52.887Z,34.60
2018-12-29T03:30:21.375Z,34.60
2018-12-29T03:32:49.652Z,35.30
2018-12-29T03:35:18.197Z,34.80
2018-12-29T03:37:46.445Z,34.80
2018-12-29T03:40:14.667Z,34.90
2018-12-29T03:42:43.145Z,35.00
2018-12-29T03:45:11.376Z,35.10
2018-12-29T03:47:39.629Z,35.10
2018-12-29T03:50:08.108Z,35.10
2018-12-29T03:52:36.345Z,35.20
2018-12-29T03:55:04.755Z,35.20
2018-12-29T03:57:33.025Z,35.30
2018-12-29T04:00:01.379Z,35.40
2018-12-29T04:02:29.640Z,35.40
2018-12-29T04:04:57.895Z,35.50
2018-12-29T04:07:26.372Z,35.60
2018-12-29T04:09:54.625Z,35.60
2018-12-29T04:12:23.087Z,35.60
2018-12-29T04:14:51.573Z,35.60
2018-12-29T04:17:19.817Z,35.70
2018-12-29T04:19:48.309Z,35.70
2018-12-29T04:22:16.536Z,35.80
2018-12-29T04:24:44.798Z,35.80
2018-12-29T04:27:13.128Z,35.80
2018-12-29T04:29:41.380Z,35.80
2018-12-29T04:32:09.614Z,35.90
2018-12-29T04:34:37.851Z,36.50
2018-12-29T04:37:06.077Z,36.00
2018-12-29T04:39:34.323Z,36.10
2018-12-29T04:42:02.643Z,36.10
2018-12-29T04:44:31.096Z,36.30
2018-12-29T04:46:59.344Z,36.20
2018-12-29T04:49:27.569Z,36.30
2018-12-29T04:51:55.824Z,36.40
2018-12-29T04:54:24.093Z,36.40
2018-12-29T04:56:52.322Z,36.50
2018-12-29T04:59:20.792Z,36.60
2018-12-29T05:01:49.042Z,36.60
2018-12-29T05:04:17.275Z,36.60
2018-12-29T05:06:45.554Z,36.70
2018-12-29T05:09:14.102Z,36.80
2018-12-29T05:11:42.360Z,36.90
2018-12-29T05:14:10.575Z,36.90
2018-12-29T05:16:39.045Z,37.00
2018-12-29T05:19:07.517Z,37.00
2018-12-29T05:21:35.978Z,37.00
2018-12-29T05:24:04.215Z,37.10
2018-12-29T05:26:32.460Z,37.10
2018-12-29T05:29:00.696Z,37.20
2018-12-29T05:31:28.945Z,37.20
2018-12-29T05:33:57.183Z,37.20
2018-12-29T05:36:25.432Z,37.30
2018-12-29T05:38:53.880Z,37.40
2018-12-29T05:41:22.107Z,37.40
2018-12-29T05:43:50.349Z,37.50
2018-12-29T05:46:20.562Z,37.50
2018-12-29T05:48:48.635Z,37.60
2018-12-29T05:51:16.879Z,37.70
2018-12-29T05:53:45.123Z,37.70
2018-12-29T05:56:13.353Z,37.60
2018-12-29T05:58:41.624Z,37.70
2018-12-29T06:01:09.873Z,37.90
2018-12-29T06:03:38.094Z,37.80
2018-12-29T06:06:06.308Z,37.80
2018-12-29T06:08:34.552Z,37.90
2018-12-29T06:11:03.012Z,37.80
2018-12-29T06:13:31.252Z,37.90
2018-12-29T06:15:59.479Z,38.00
2018-12-29T06:18:27.716Z,38.00
2018-12-29T06:20:55.940Z,38.00
2018-12-29T06:23:24.179Z,38.20
2018-12-29T06:25:52.429Z,38.20
2018-12-29T06:28:20.644Z,38.20
2018-12-29T06:30:48.883Z,38.30
2018-12-29T06:33:17.111Z,38.40
2018-12-29T06:35:45.348Z,38.40
2018-12-29T06:38:13.620Z,38.30
2018-12-29T06:40:41.835Z,38.40
2018-12-29T06:43:10.101Z,38.40
2018-12-29T06:45:38.345Z,38.40
2018-12-29T06:48:06.584Z,38.50
2018-12-29T06:50:35.056Z,38.50
2018-12-29T06:53:03.380Z,38.60
2018-12-29T06:55:31.601Z,38.60
2018-12-29T06:58:00.051Z,38.60
2018-12-29T07:00:28.525Z,38.70
2018-12-29T07:02:57.000Z,38.70
2018-12-29T07:05:25.240Z,38.70
2018-12-29T07:07:53.478Z,38.70
2018-12-29T07:10:21.697Z,38.70
2018-12-29T07:12:49.939Z,38.80
2018-12-29T07:15:18.407Z,38.90
2018-12-29T07:17:46.722Z,38.90
2018-12-29T07:20:14.983Z,38.90
2018-12-29T07:22:43.220Z,38.90
2018-12-29T07:25:11.688Z,39.00
2018-12-29T07:27:39.924Z,39.00
2018-12-29T07:30:08.212Z,39.00
2018-12-29T07:32:36.448Z,39.00
2018-12-29T07:35:04.960Z,39.10
2018-12-29T07:37:33.205Z,39.10
2018-12-29T07:40:01.427Z,39.10
2018-12-29T07:42:29.667Z,39.10
2018-12-29T07:44:57.916Z,39.10
2018-12-29T07:47:26.409Z,39.20
2018-12-29T07:49:54.657Z,39.20
2018-12-29T07:52:22.879Z,39.30
2018-12-29T07:54:51.124Z,39.30
2018-12-29T07:57:19.337Z,39.20
2018-12-29T07:59:47.585Z,39.30
2018-12-29T08:02:15.878Z,39.30
2018-12-29T08:04:44.139Z,39.30
2018-12-29T08:07:12.353Z,39.40
2018-12-29T08:09:40.605Z,39.50
2018-12-29T08:12:08.863Z,39.50
2018-12-29T08:14:37.111Z,39.50
2018-12-29T08:17:05.360Z,39.60
2018-12-29T08:19:33.592Z,39.60
2018-12-29T08:22:01.835Z,39.60
2018-12-29T08:24:30.121Z,39.60
2018-12-29T08:26:58.570Z,39.70
2018-12-29T08:29:27.047Z,39.70
2018-12-29T08:31:55.265Z,39.80
2018-12-29T08:34:23.512Z,39.80
2018-12-29T08:36:51.960Z,39.80
2018-12-29T08:39:20.183Z,39.80
2018-12-29T08:41:48.422Z,39.90
2018-12-29T08:44:16.736Z,39.90
2018-12-29T08:46:45.020Z,39.90
2018-12-29T08:49:13.260Z,40.00
2018-12-29T08:51:41.488Z,40.00
2018-12-29T08:54:09.715Z,40.00
2018-12-29T08:56:37.946Z,40.00
2018-12-29T08:59:06.188Z,40.70
2018-12-29T09:01:34.408Z,40.10
2018-12-29T09:04:02.674Z,40.10
2018-12-29T09:06:31.122Z,40.30
2018-12-29T09:08:59.348Z,40.30
2018-12-29T09:11:27.600Z,40.20
2018-12-29T09:13:55.806Z,40.20
2018-12-29T09:16:24.040Z,40.10
2018-12-29T09:18:52.261Z,40.00
2018-12-29T09:21:20.741Z,39.90
2018-12-29T09:23:48.956Z,39.70
2018-12-29T09:26:17.205Z,39.60
2018-12-29T09:28:45.421Z,39.50
2018-12-29T09:31:13.659Z,39.40
2018-12-29T09:33:41.876Z,39.30
2018-12-29T09:36:10.120Z,39.20
2018-12-29T09:38:38.349Z,39.20
2018-12-29T09:41:06.604Z,39.10
2018-12-29T09:43:34.824Z,39.10
2018-12-29T09:46:03.060Z,39.00
2018-12-29T09:48:31.300Z,39.20
2018-12-29T09:50:59.546Z,39.10
2018-12-29T09:53:28.005Z,39.10
2018-12-29T09:55:56.285Z,39.00
2018-12-29T09:58:24.576Z,38.80
2018-12-29T10:00:52.839Z,37.40
2018-12-29T10:03:21.304Z,35.10
2018-12-29T10:05:49.536Z,35.00
2018-12-29T10:08:18.013Z,34.00
2018-12-29T10:10:46.477Z,33.60
2018-12-29T10:13:14.711Z,33.10
2018-12-29T10:15:42.952Z,32.40
2018-12-29T10:18:11.211Z,32.20
2018-12-29T10:20:39.504Z,31.80
2018-12-29T10:23:07.968Z,32.00
2018-12-29T10:25:36.224Z,31.50
2018-12-29T10:28:04.448Z,31.30
2018-12-29T10:30:32.699Z,31.30
2018-12-29T10:33:00.925Z,31.30
2018-12-29T10:35:29.172Z,31.50
2018-12-29T10:37:58.398Z,31.30
2018-12-29T10:40:26.648Z,30.90
2018-12-29T10:42:55.137Z,31.20
2018-12-29T10:45:23.349Z,31.10
2018-12-29T10:47:51.590Z,31.00
2018-12-29T10:50:19.812Z,31.30
2018-12-29T10:52:48.061Z,31.10
2018-12-29T10:55:16.648Z,31.10
2018-12-29T10:57:44.880Z,31.10
2018-12-29T11:00:13.121Z,31.00
2018-12-29T11:02:41.351Z,31.20
2018-12-29T11:05:09.588Z,31.30
2018-12-29T11:07:37.824Z,31.40
2018-12-29T11:10:07.056Z,32.20
2018-12-29T11:12:35.291Z,31.50
2018-12-29T11:15:03.539Z,31.50
2018-12-29T11:17:31.775Z,31.40
2018-12-29T11:20:00.086Z,32.10
2018-12-29T11:22:28.362Z,31.50
2018-12-29T11:24:56.611Z,31.50
2018-12-29T11:27:24.841Z,31.50
2018-12-29T11:29:53.062Z,31.60
2018-12-29T11:32:21.337Z,31.50
2018-12-29T11:34:49.579Z,31.60
2018-12-29T11:37:17.828Z,31.70
2018-12-29T11:39:46.079Z,31.70
2018-12-29T11:42:14.299Z,31.80
2018-12-29T11:44:42.616Z,32.00
2018-12-29T11:47:11.222Z,32.00
2018-12-29T11:49:39.558Z,32.20
2018-12-29T11:52:08.085Z,31.90
2018-12-29T11:54:36.665Z,32.20
2018-12-29T11:57:05.050Z,30.70
2018-12-29T11:59:33.345Z,30.40
2018-12-29T12:02:01.739Z,29.70
2018-12-29T12:04:30.068Z,29.30
2018-12-29T12:06:58.747Z,29.30
2018-12-29T12:09:27.074Z,29.50
2018-12-29T12:11:55.447Z,29.20
2018-12-29T12:14:23.744Z,29.50
2018-12-29T12:16:51.958Z,29.80
2018-12-29T12:19:20.580Z,30.00
2018-12-29T12:21:49.160Z,30.90
2018-12-29T12:24:17.471Z,32.10
2018-12-29T12:26:45.722Z,33.10
2018-12-29T12:29:14.125Z,34.20
2018-12-29T12:31:42.907Z,34.70
2018-12-29T12:34:11.160Z,35.30
2018-12-29T12:36:39.692Z,36.00
2018-12-29T12:39:07.916Z,36.40
2018-12-29T12:41:36.543Z,36.90
2018-12-29T12:44:04.765Z,37.30
2018-12-29T12:46:33.260Z,37.60
2018-12-29T12:49:01.869Z,37.70
2018-12-29T12:51:30.435Z,38.10
2018-12-29T12:53:58.677Z,38.50
2018-12-29T12:56:27.240Z,38.70
2018-12-29T12:58:55.485Z,39.10
2018-12-29T13:01:24.085Z,39.30
2018-12-29T13:03:52.323Z,39.60
2018-12-29T13:06:20.831Z,39.80
2018-12-29T13:08:49.052Z,40.00
2018-12-29T13:11:17.295Z,40.30
2018-12-29T13:13:45.512Z,40.60
2018-12-29T13:16:13.766Z,40.90
2018-12-29T13:18:42.014Z,41.00
2018-12-29T13:21:10.336Z,41.10
2018-12-29T13:23:38.619Z,41.40
2018-12-29T13:26:07.314Z,41.70
2018-12-29T13:28:35.556Z,41.80
2018-12-29T13:31:04.028Z,42.00
2018-12-29T13:33:32.252Z,42.00
2018-12-29T13:36:00.733Z,42.30
2018-12-29T13:38:29.268Z,42.50
2018-12-29T13:40:57.504Z,42.60
2018-12-29T13:43:25.755Z,42.80
2018-12-29T13:45:54.027Z,43.00
2018-12-29T13:48:22.248Z,43.10
2018-12-29T13:50:50.776Z,43.30
2018-12-29T13:53:19.003Z,43.00
2018-12-29T13:55:47.247Z,43.10
2018-12-29T13:58:15.494Z,42.80
2018-12-29T14:00:43.760Z,42.20
2018-12-29T14:03:12.362Z,42.20
2018-12-29T14:05:40.596Z,42.40
2018-12-29T14:08:09.143Z,42.00
2018-12-29T14:10:37.416Z,41.40
2018-12-29T14:13:05.662Z,41.50
2018-12-29T14:15:34.188Z,41.90
2018-12-29T14:18:02.462Z,41.10
2018-12-29T14:20:31.036Z,40.80
2018-12-29T14:22:59.286Z,41.30
2018-12-29T14:25:27.546Z,41.40
2018-12-29T14:27:55.849Z,41.60
2018-12-29T14:30:24.092Z,41.30
2018-12-29T14:32:52.338Z,42.10
2018-12-29T14:35:20.611Z,41.70
2018-12-29T14:37:48.840Z,41.80
2018-12-29T14:40:17.355Z,42.00
2018-12-29T14:42:45.596Z,41.90
2018-12-29T14:45:13.825Z,42.80
2018-12-29T14:47:42.056Z,42.40
2018-12-29T14:50:10.325Z,42.60
2018-12-29T14:52:38.836Z,42.50
2018-12-29T14:55:07.089Z,42.60
2018-12-29T14:57:35.376Z,42.40
2018-12-29T15:00:04.159Z,42.60
2018-12-29T15:02:32.412Z,43.20
2018-12-29T15:05:00.811Z,42.90
2018-12-29T15:07:29.126Z,43.30
2018-12-29T15:09:57.591Z,43.60
2018-12-29T15:12:25.948Z,44.40
2018-12-29T15:14:57.585Z,44.70
2018-12-29T15:17:25.886Z,45.40
2018-12-29T15:19:54.154Z,46.20
2018-12-29T15:22:22.386Z,46.30
2018-12-29T15:24:50.888Z,46.30
2018-12-29T15:27:19.211Z,46.60
2018-12-29T15:29:47.550Z,47.10
2018-12-29T15:32:16.148Z,47.30
2018-12-29T15:34:44.448Z,47.40
2018-12-29T15:37:12.929Z,47.40
2018-12-29T15:39:41.470Z,48.20
2018-12-29T15:42:09.708Z,47.70
2018-12-29T15:44:38.800Z,48.50
2018-12-29T15:47:07.432Z,48.30
2018-12-29T15:49:35.705Z,48.50
2018-12-29T15:52:04.056Z,48.50
2018-12-29T15:54:32.688Z,48.70
2018-12-29T15:57:00.924Z,48.70
2018-12-29T15:59:29.356Z,49.50
2018-12-29T16:01:57.598Z,49.80
2018-12-29T16:04:25.923Z,49.70
2018-12-29T16:06:54.216Z,49.90
2018-12-29T16:09:23.075Z,49.80
2018-12-29T16:11:51.485Z,49.50
2018-12-29T16:14:19.743Z,49.30
2018-12-29T16:16:48.586Z,49.90
2018-12-29T16:19:17.054Z,49.70
2018-12-29T16:21:45.548Z,49.90
2018-12-29T16:24:14.062Z,50.20
2018-12-29T16:26:42.396Z,50.30
2018-12-29T16:29:10.708Z,50.70
2018-12-29T16:31:38.971Z,51.20
2018-12-29T16:34:07.781Z,50.90
2018-12-29T16:36:36.304Z,50.90
2018-12-29T16:39:05.869Z,50.40
2018-12-29T16:41:34.099Z,50.30
2018-12-29T16:44:02.862Z,50.80
2018-12-29T16:46:31.368Z,50.80
2018-12-29T16:49:06.547Z,50.60
2018-12-29T16:51:29.848Z,50.80
2018-12-29T16:53:58.331Z,50.80
2018-12-29T16:56:26.579Z,51.40
2018-12-29T16:58:54.981Z,51.00
2018-12-29T17:01:23.224Z,51.20
2018-12-29T17:03:51.552Z,51.30
2018-12-29T17:06:19.783Z,51.10
2018-12-29T17:08:48.016Z,50.60
2018-12-29T17:11:16.276Z,47.50
2018-12-29T17:13:44.816Z,49.40
2018-12-29T17:16:13.111Z,49.60
2018-12-29T17:18:41.407Z,49.80
2018-12-29T17:21:09.836Z,49.90
2018-12-29T17:23:38.436Z,50.20
2018-12-29T17:26:06.737Z,49.60
2018-12-29T17:28:35.413Z,49.60
2018-12-29T17:31:03.634Z,49.70
2018-12-29T17:33:31.856Z,49.70
2018-12-29T17:36:00.135Z,49.60
2018-12-29T17:38:28.544Z,49.70
2018-12-29T17:40:57.045Z,49.60
2018-12-29T17:43:25.302Z,49.40
2018-12-29T17:45:53.759Z,49.50
2018-12-29T17:48:22.004Z,49.50
2018-12-29T17:50:50.238Z,49.20
2018-12-29T17:53:18.881Z,49.20
2018-12-29T17:55:47.107Z,49.30
2018-12-29T17:58:15.608Z,49.30
2018-12-29T18:00:43.864Z,49.30
2018-12-29T18:03:13.565Z,49.20
2018-12-29T18:05:41.909Z,49.10
2018-12-29T18:08:10.174Z,49.00
2018-12-29T18:10:38.467Z,48.90
2018-12-29T18:13:06.701Z,49.00
2018-12-29T18:15:35.024Z,48.90
2018-12-29T18:18:03.560Z,48.90
2018-12-29T18:20:32.072Z,48.80
2018-12-29T18:23:00.385Z,48.70
2018-12-29T18:25:28.616Z,48.60
2018-12-29T18:27:56.939Z,48.60
2018-12-29T18:30:25.240Z,48.30
2018-12-29T18:32:53.468Z,48.40
2018-12-29T18:35:21.791Z,48.40
2018-12-29T18:37:50.007Z,48.50
2018-12-29T18:40:18.254Z,48.40
2018-12-29T18:42:46.598Z,48.20
2018-12-29T18:45:14.914Z,48.20
2018-12-29T18:47:43.230Z,48.20
2018-12-29T18:50:11.480Z,48.10
2018-12-29T18:52:39.778Z,48.00
2018-12-29T18:55:08.304Z,48.20
2018-12-29T18:57:36.527Z,48.00
2018-12-29T19:00:06.123Z,48.10
2018-12-29T19:02:34.366Z,48.10
2018-12-29T19:05:02.737Z,48.00
2018-12-29T19:07:31.012Z,48.00
2018-12-29T19:09:59.259Z,47.90
2018-12-29T19:12:27.486Z,48.00
2018-12-29T19:14:55.804Z,48.10
2018-12-29T19:17:24.268Z,47.90
2018-12-29T19:19:52.979Z,47.90
2018-12-29T19:22:21.232Z,48.10
2018-12-29T19:24:49.484Z,48.10
2018-12-29T19:27:17.786Z,48.10
2018-12-29T19:29:46.008Z,48.20
2018-12-29T19:32:14.983Z,48.30
2018-12-29T19:34:43.476Z,48.30
2018-12-29T19:37:12.112Z,48.30
2018-12-29T19:39:40.708Z,48.30
2018-12-29T19:42:08.957Z,48.40
2018-12-29T19:44:37.318Z,48.40
2018-12-29T19:47:05.560Z,48.50
2018-12-29T19:49:34.068Z,48.50
2018-12-29T19:52:02.319Z,48.60
2018-12-29T19:54:30.759Z,48.50
2018-12-29T19:56:59.259Z,48.60
2018-12-29T19:59:27.804Z,48.80
2018-12-29T20:01:56.116Z,49.00
2018-12-29T20:04:24.344Z,48.80
2018-12-29T20:06:53.243Z,48.70
2018-12-29T20:09:21.485Z,48.90
2018-12-29T20:11:49.733Z,48.90
2018-12-29T20:14:18.000Z,49.00
2018-12-29T20:16:46.292Z,48.90
2018-12-29T20:19:14.548Z,48.90
2018-12-29T20:21:42.852Z,49.10
2018-12-29T20:24:11.310Z,49.10
2018-12-29T20:26:39.833Z,49.10
2018-12-29T20:29:08.047Z,49.10
2018-12-29T20:31:36.309Z,49.20
2018-12-29T20:34:04.540Z,49.30
2018-12-29T20:36:33.036Z,49.30
2018-12-29T20:39:01.628Z,49.30
2018-12-29T20:41:29.867Z,49.30
2018-12-29T20:43:58.135Z,49.40
2018-12-29T20:46:26.669Z,49.40
2018-12-29T20:48:54.918Z,49.50
2018-12-29T20:51:23.381Z,49.50
2018-12-29T20:53:51.907Z,49.50
2018-12-29T20:56:20.228Z,49.70
2018-12-29T20:58:48.697Z,49.70
2018-12-29T21:01:17.020Z,49.70
2018-12-29T21:03:45.258Z,49.90
2018-12-29T21:06:13.552Z,49.80
2018-12-29T21:08:41.776Z,49.70
2018-12-29T21:11:10.017Z,49.80
2018-12-29T21:13:38.293Z,50.00
2018-12-29T21:16:06.815Z,50.00
2018-12-29T21:18:35.046Z,50.30
2018-12-29T21:21:03.681Z,50.30
2018-12-29T21:23:32.231Z,50.40
2018-12-29T21:26:00.492Z,50.40
2018-12-29T21:28:28.738Z,50.50
2018-12-29T21:30:56.963Z,50.90
2018-12-29T21:33:25.308Z,51.10
2018-12-29T21:35:53.896Z,51.20
2018-12-29T21:38:22.204Z,51.30
2018-12-29T21:40:50.420Z,51.60
2018-12-29T21:43:18.740Z,51.50
2018-12-29T21:45:47.216Z,51.70
2018-12-29T21:48:15.512Z,52.00
2018-12-29T21:50:43.785Z,51.80
2018-12-29T21:53:12.084Z,51.80
2018-12-29T21:55:40.327Z,51.70
2018-12-29T21:58:08.576Z,51.50
2018-12-29T22:00:36.888Z,51.30
2018-12-29T22:03:05.103Z,51.30
2018-12-29T22:05:33.581Z,51.00
2018-12-29T22:08:01.825Z,50.90
2018-12-29T22:10:30.304Z,51.00
2018-12-29T22:12:58.776Z,51.10
2018-12-29T22:15:27.000Z,50.90
2018-12-29T22:17:55.773Z,50.90
2018-12-29T22:20:24.064Z,51.40
2018-12-29T22:22:52.299Z,50.60
2018-12-29T22:25:20.524Z,50.50
2018-12-29T22:27:48.767Z,50.20
2018-12-29T22:30:17.068Z,50.20
2018-12-29T22:32:45.367Z,50.10
2018-12-29T22:35:13.860Z,49.80
2018-12-29T22:37:42.124Z,49.70
2018-12-29T22:40:10.418Z,49.50
2018-12-29T22:42:38.757Z,49.30
2018-12-29T22:45:07.261Z,49.00
2018-12-29T22:47:35.495Z,49.00
2018-12-29T22:50:03.799Z,48.80
2018-12-29T22:52:32.115Z,48.60
2018-12-29T22:55:00.371Z,48.50
2018-12-29T22:57:28.705Z,48.10
2018-12-29T22:59:57.074Z,47.90
2018-12-29T23:02:25.364Z,47.80
2018-12-29T23:04:53.680Z,47.40
2018-12-29T23:07:22.306Z,47.20
2018-12-29T23:09:50.564Z,46.90
2018-12-29T23:12:18.858Z,46.80
2018-12-29T23:14:47.113Z,46.60
2018-12-29T23:17:15.427Z,46.50
2018-12-29T23:19:43.884Z,46.20
2018-12-29T23:22:12.138Z,45.90
2018-12-29T23:24:40.682Z,45.70
2018-12-29T23:27:08.922Z,45.40
2018-12-29T23:29:37.215Z,45.40
2018-12-29T23:32:05.565Z,45.10
2018-12-29T23:34:34.082Z,44.80
2018-12-29T23:37:02.460Z,44.70
2018-12-29T23:39:30.716Z,44.60
2018-12-29T23:41:59.368Z,44.20
2018-12-29T23:44:27.675Z,43.90
2018-12-29T23:46:56.006Z,43.60
2018-12-29T23:49:24.588Z,43.40
2018-12-29T23:51:53.203Z,43.20
2018-12-29T23:54:21.450Z,42.90
2018-12-29T23:56:50.057Z,42.80
2018-12-29T23:59:18.812Z,42.40
